Time;durP1;ratioP1;P1;durP2;ratioP2;P2;SDS_P1;SDS_P2;PMS_P1;PMS_P2;Temp;Humidity;BMP_temperature;BMP_pressure;BME280_temperature;BME280_humidity;BME280_pressure;Samples;Min_cycle;Max_cycle;Signal;HPM_P1;HPM_P2
2022/07/04 00:00:18;;;;;;;5.60;1.38;;;13.30;99.90;;;;;;5091665;28;20585;-61
2022/07/04 00:02:45;;;;;;;5.63;1.50;;;13.30;99.90;;;;;;5091640;28;20168;-61
2022/07/04 00:05:12;;;;;;;6.63;1.52;;;13.30;99.90;;;;;;5091569;28;20168;-61
2022/07/04 00:07:41;;;;;;;6.80;1.30;;;13.00;99.90;;;;;;5091479;28;20168;-61
2022/07/04 00:10:10;;;;;;;8.35;1.50;;;13.20;99.90;;;;;;5091609;28;20225;-61
2022/07/04 00:12:36;;;;;;;5.03;1.60;;;13.20;99.90;;;;;;5091364;28;20678;-60
2022/07/04 00:15:03;;;;;;;7.53;1.85;;;13.00;99.90;;;;;;5091511;28;20176;-60
2022/07/04 00:17:29;;;;;;;4.90;1.30;;;13.30;99.90;;;;;;5091408;28;20176;-61
2022/07/04 00:19:54;;;;;;;5.00;1.60;;;13.00;99.90;;;;;;5091380;28;20259;-61
2022/07/04 00:22:20;;;;;;;4.15;1.40;;;13.10;99.90;;;;;;5091364;28;20255;-60
2022/07/04 00:24:46;;;;;;;6.00;1.70;;;12.70;99.90;;;;;;5091340;28;20624;-60
2022/07/04 00:27:12;;;;;;;5.47;1.35;;;13.00;99.90;;;;;;5091231;28;20228;-60
2022/07/04 00:29:37;;;;;;;3.63;1.03;;;12.70;99.90;;;;;;5089921;28;20183;-59
2022/07/04 00:32:03;;;;;;;5.20;1.25;;;12.80;99.90;;;;;;5091103;28;20212;-59
2022/07/04 00:34:29;;;;;;;4.43;1.30;;;12.80;99.90;;;;;;5091189;28;20224;-59
2022/07/04 00:36:55;;;;;;;3.10;1.30;;;12.80;99.90;;;;;;5090946;28;20167;-59
2022/07/04 00:39:21;;;;;;;4.90;1.47;;;12.80;99.90;;;;;;5091213;28;20171;-59
2022/07/04 00:41:47;;;;;;;3.03;1.23;;;12.80;99.90;;;;;;5090913;28;20200;-59
2022/07/04 00:44:15;;;;;;;5.57;1.50;;;12.80;99.90;;;;;;5091077;28;20267;-59
2022/07/04 00:46:42;;;;;;;4.30;1.20;;;12.80;99.90;;;;;;5091059;28;20187;-60
2022/07/04 00:49:09;;;;;;;4.33;1.17;;;13.00;99.90;;;;;;5091076;28;20175;-60
2022/07/04 00:51:39;;;;;;;3.20;1.37;;;12.60;99.90;;;;;;5090976;28;20164;-59
2022/07/04 00:54:06;;;;;;;5.13;1.55;;;12.50;99.90;;;;;;5090945;28;20179;-59
2022/07/04 00:56:34;;;;;;;3.17;1.23;;;12.50;99.90;;;;;;5091037;28;20171;-59
2022/07/04 00:59:00;;;;;;;5.20;1.50;;;12.40;99.90;;;;;;5090997;28;20199;-59
2022/07/04 01:01:26;;;;;;;2.57;1.30;;;12.40;99.90;;;;;;5090819;28;20639;-59
2022/07/04 01:03:52;;;;;;;4.93;1.10;;;12.20;99.90;;;;;;5091034;28;20225;-60
2022/07/04 01:06:19;;;;;;;7.07;1.30;;;12.20;99.90;;;;;;5095220;28;20225;-60
2022/07/04 01:08:45;;;;;;;2.40;1.20;;;12.40;99.90;;;;;;5094990;28;20172;-59
2022/07/04 01:11:12;;;;;;;3.27;1.17;;;12.30;99.90;;;;;;5095676;28;20232;-59
2022/07/04 01:13:40;;;;;;;2.73;1.47;;;12.30;99.90;;;;;;5095299;28;20623;-59
2022/07/04 01:16:06;;;;;;;6.27;1.47;;;12.20;99.90;;;;;;5095783;28;20259;-59
2022/07/04 01:18:32;;;;;;;5.93;1.53;;;12.30;99.90;;;;;;5095518;28;20210;-59
2022/07/04 01:20:58;;;;;;;3.53;1.77;;;12.10;99.90;;;;;;5095323;28;20164;-59
2022/07/04 01:23:23;;;;;;;6.10;2.13;;;12.20;99.90;;;;;;5095211;28;20155;-59
2022/07/04 01:25:50;;;;;;;6.80;1.87;;;;;;;;;;5095191;28;20513;-59
2022/07/04 01:28:18;;;;;;;5.23;1.80;;;12.10;99.90;;;;;;5095046;28;20196;-59
2022/07/04 01:30:44;;;;;;;5.80;1.77;;;12.10;99.90;;;;;;5094514;28;20175;-59
2022/07/04 01:33:09;;;;;;;8.30;1.90;;;12.10;99.90;;;;;;5094188;28;20559;-59
2022/07/04 01:35:35;;;;;;;7.63;2.00;;;12.10;99.90;;;;;;5094452;28;20188;-59
2022/07/04 01:38:01;;;;;;;5.43;1.90;;;12.10;99.90;;;;;;5094370;28;20176;-59
2022/07/04 01:40:27;;;;;;;3.90;1.50;;;12.30;99.90;;;;;;5094399;28;20172;-59
2022/07/04 01:42:53;;;;;;;7.53;1.43;;;12.00;99.90;;;;;;5094576;28;20184;-59
2022/07/04 01:45:19;;;;;;;4.13;1.70;;;12.20;99.90;;;;;;5093029;28;20645;-60
2022/07/04 01:47:44;;;;;;;7.00;1.60;;;12.20;99.90;;;;;;5094255;28;20176;-59
2022/07/04 01:50:14;;;;;;;10.97;1.73;;;12.00;99.90;;;;;;5094230;28;20174;-59
2022/07/04 01:52:41;;;;;;;5.37;1.60;;;12.00;99.90;;;;;;5094212;28;20207;-59
2022/07/04 01:55:08;;;;;;;6.50;1.70;;;12.20;99.90;;;;;;5094296;28;20255;-59
2022/07/04 01:57:34;;;;;;;5.23;1.70;;;12.00;99.90;;;;;;5093912;28;20168;-59
2022/07/04 02:02:44;;;;;;;7.53;1.70;;;12.00;99.90;;;;;;5093892;28;20174;-59
2022/07/04 02:05:10;;;;;;;4.37;1.77;;;11.80;99.90;;;;;;5093782;28;20236;-59
2022/07/04 02:07:36;;;;;;;6.57;1.80;;;12.00;99.90;;;;;;5093791;28;20179;-59
2022/07/04 02:10:03;;;;;;;7.00;1.87;;;11.80;99.90;;;;;;5093751;28;20194;-59
2022/07/04 02:15:13;;;;;;;8.77;1.90;;;11.90;99.90;;;;;;5093905;28;20182;-59
2022/07/04 02:17:38;;;;;;;4.30;2.13;;;11.90;99.90;;;;;;5092728;28;20258;-59
2022/07/04 02:20:06;;;;;;;4.97;1.63;;;11.80;99.90;;;;;;5093448;28;20606;-59
2022/07/04 02:22:32;;;;;;;7.27;2.13;;;11.90;99.90;;;;;;5093326;28;20208;-59
2022/07/04 02:24:58;;;;;;;10.23;1.97;;;11.90;99.90;;;;;;5093360;28;20160;-59
2022/07/04 02:27:23;;;;;;;5.87;1.90;;;12.00;99.90;;;;;;5093476;28;20168;-59
2022/07/04 02:29:49;;;;;;;7.60;1.90;;;12.00;99.90;;;;;;5093374;28;20521;-59
2022/07/04 02:32:15;;;;;;;7.50;1.80;;;11.90;99.90;;;;;;5093280;28;20227;-59
2022/07/04 02:34:41;;;;;;;5.97;1.70;;;11.80;99.90;;;;;;5093053;28;20223;-59
2022/07/04 02:37:07;;;;;;;7.03;2.00;;;11.90;99.90;;;;;;5093350;28;20229;-59
2022/07/04 02:39:32;;;;;;;5.00;1.53;;;12.10;99.90;;;;;;5093228;28;20708;-59
2022/07/04 02:41:58;;;;;;;7.07;1.57;;;12.00;99.90;;;;;;5093182;28;20174;-59
2022/07/04 02:44:25;;;;;;;8.00;1.70;;;12.00;99.90;;;;;;5092905;28;20281;-59
2022/07/04 02:46:50;;;;;;;8.47;1.93;;;12.00;99.90;;;;;;5092484;28;20225;-59
2022/07/04 02:49:16;;;;;;;4.97;1.70;;;11.90;99.90;;;;;;5091305;28;20184;-59
2022/07/04 02:51:42;;;;;;;2.83;1.80;;;12.20;99.90;;;;;;5092888;28;20630;-59
2022/07/04 02:54:08;;;;;;;8.53;1.83;;;12.10;99.90;;;;;;5092833;28;20176;-59
2022/07/04 02:56:34;;;;;;;4.93;1.60;;;12.20;99.90;;;;;;5092923;28;20229;-59
2022/07/04 02:59:00;;;;;;;5.90;1.50;;;12.60;99.90;;;;;;5092873;28;20176;-59
2022/07/04 03:01:26;;;;;;;5.63;1.30;;;12.40;99.90;;;;;;5092806;28;20618;-59
2022/07/04 03:03:52;;;;;;;5.00;1.13;;;12.50;99.90;;;;;;5092755;28;20218;-59
2022/07/04 03:06:18;;;;;;;6.60;1.60;;;12.60;99.90;;;;;;5092644;28;20586;-59
2022/07/04 03:08:44;;;;;;;7.70;1.52;;;12.60;99.90;;;;;;5091105;28;20220;-60
2022/07/04 03:11:10;;;;;;;9.20;1.93;;;12.60;99.90;;;;;;5092493;28;20665;-59
2022/07/04 03:13:37;;;;;;;5.20;1.10;;;12.70;99.90;;;;;;5092227;28;20206;-59
2022/07/04 03:16:03;;;;;;;10.03;1.30;;;12.70;99.90;;;;;;5092176;28;20160;-59
2022/07/04 03:18:29;;;;;;;5.57;1.43;;;12.60;99.90;;;;;;5092459;28;20168;-59
2022/07/04 03:20:54;;;;;;;2.17;1.20;;;12.80;99.90;;;;;;5092350;28;20168;-59
2022/07/04 03:23:20;;;;;;;5.22;1.85;;;12.70;99.90;;;;;;5092336;28;20171;-59
2022/07/04 03:25:46;;;;;;;7.47;1.87;;;12.70;99.90;;;;;;5092272;28;20164;-59
2022/07/04 03:28:11;;;;;;;7.38;2.15;;;12.70;99.90;;;;;;5092258;28;20204;-59
2022/07/04 03:30:37;;;;;;;5.37;1.77;;;12.70;99.90;;;;;;5092232;28;20240;-59
2022/07/04 03:33:03;;;;;;;4.90;1.40;;;12.70;99.90;;;;;;5091979;28;20211;-59
2022/07/04 03:35:29;;;;;;;8.20;1.67;;;12.60;99.90;;;;;;5091093;28;20312;-59
2022/07/04 03:37:55;;;;;;;5.43;2.37;;;12.60;99.90;;;;;;5092135;28;20168;-59
2022/07/04 03:40:22;;;;;;;8.82;1.90;;;12.50;99.90;;;;;;5092073;28;20179;-60
2022/07/04 03:42:48;;;;;;;8.68;2.75;;;12.30;99.90;;;;;;5092030;28;20180;-59
2022/07/04 03:45:14;;;;;;;7.57;2.90;;;12.50;99.90;;;;;;5091556;28;20255;-59
2022/07/04 03:47:40;;;;;;;6.70;2.80;;;12.40;99.90;;;;;;5091371;28;20207;-59
2022/07/04 03:50:06;;;;;;;9.57;2.90;;;12.50;99.90;;;;;;5091605;28;20710;-59
2022/07/04 03:52:32;;;;;;;5.87;2.70;;;12.40;99.90;;;;;;5091721;28;20211;-59
2022/07/04 03:54:58;;;;;;;9.23;3.20;;;12.30;99.90;;;;;;5091728;28;20521;-59
2022/07/04 03:57:23;;;;;;;10.07;3.63;;;12.40;99.90;;;;;;5091735;28;20182;-59
2022/07/04 03:59:50;;;;;;;10.53;4.47;;;12.70;99.90;;;;;;5091991;28;20180;-59
2022/07/04 04:02:15;;;;;;;7.87;4.00;;;12.50;99.90;;;;;;5091518;28;20168;-58
2022/07/04 04:07:25;;;;;;;11.90;5.00;;;12.70;99.90;;;;;;5091814;28;20179;-58
2022/07/04 04:09:51;;;;;;;12.17;5.20;;;12.80;99.90;;;;;;5091541;28;20168;-59
2022/07/04 04:12:17;;;;;;;10.13;5.38;;;12.70;99.90;;;;;;5091432;28;20275;-59
2022/07/04 04:14:43;;;;;;;12.43;5.20;;;11.30;99.90;;;;;;5091545;28;20255;-61
2022/07/04 04:17:09;;;;;;;11.53;5.40;;;12.70;99.90;;;;;;5091451;28;20179;-59
2022/07/04 04:19:35;;;;;;;12.77;5.50;;;13.90;99.90;;;;;;5091399;28;20167;-59
2022/07/04 04:22:00;;;;;;;11.20;5.15;;;12.70;99.90;;;;;;5091407;28;20176;-59
2022/07/04 04:24:26;;;;;;;9.18;4.97;;;12.90;99.90;;;;;;5091236;28;20209;-59
2022/07/04 04:26:52;;;;;;;9.37;5.27;;;12.90;99.90;;;;;;5091396;28;20172;-59
2022/07/04 04:29:18;;;;;;;14.37;5.47;;;12.90;99.90;;;;;;5091337;28;20172;-59
2022/07/04 04:31:44;;;;;;;10.37;4.40;;;13.20;99.90;;;;;;5091495;28;20646;-59
2022/07/04 04:34:09;;;;;;;16.63;5.07;;;12.90;99.90;;;;;;5091337;28;20227;-59
2022/07/04 04:36:35;;;;;;;9.23;5.20;;;12.90;99.90;;;;;;5091239;28;20168;-60
2022/07/04 04:39:01;;;;;;;10.15;5.38;;;12.80;99.90;;;;;;5090749;28;20207;-60
2022/07/04 04:41:27;;;;;;;11.60;4.40;;;13.20;99.90;;;;;;5091172;28;20176;-60
2022/07/04 04:43:52;;;;;;;13.77;4.63;;;13.60;99.90;;;;;;5091068;28;20540;-60
2022/07/04 04:46:18;;;;;;;8.57;5.05;;;13.20;99.90;;;;;;5091006;28;20171;-60
2022/07/04 04:48:44;;;;;;;12.75;4.53;;;13.20;99.90;;;;;;5090810;28;20179;-60
2022/07/04 04:51:10;;;;;;;7.23;4.30;;;13.40;99.90;;;;;;5090359;28;20171;-60
2022/07/04 04:53:36;;;;;;;16.30;5.93;;;12.80;99.90;;;;;;5090065;28;20230;-60
2022/07/04 04:56:02;;;;;;;13.27;5.53;;;13.70;99.90;;;;;;5090480;28;20195;-60
2022/07/04 04:58:28;;;;;;;14.73;5.70;;;13.60;99.90;;;;;;5090407;28;20587;-60
2022/07/04 05:00:54;;;;;;;8.70;4.60;;;13.60;99.90;;;;;;5090770;28;20161;-60
2022/07/04 05:03:20;;;;;;;13.65;5.55;;;13.70;99.90;;;;;;5090648;28;20164;-60
2022/07/04 05:05:46;;;;;;;14.85;5.30;;;13.70;99.90;;;;;;5090802;28;20183;-60
2022/07/04 05:08:12;;;;;;;11.75;5.20;;;13.80;99.90;;;;;;5090716;28;20163;-59
2022/07/04 05:10:42;;;;;;;11.57;5.40;;;13.90;99.90;;;;;;5090805;28;20192;-60
2022/07/04 05:13:07;;;;;;;24.77;5.55;;;14.20;99.90;;;;;;5090797;28;20242;-61
2022/07/04 05:15:33;;;;;;;11.60;5.65;;;14.10;99.90;;;;;;5090856;28;20203;-60
2022/07/04 05:17:59;;;;;;;8.63;5.35;;;14.20;99.90;;;;;;5090796;28;20241;-60
2022/07/04 05:20:25;;;;;;;10.98;5.40;;;14.30;99.90;;;;;;5090739;28;20168;-60
2022/07/04 05:22:51;;;;;;;11.95;6.47;;;14.40;99.90;;;;;;5090538;28;20221;-60
2022/07/04 05:25:16;;;;;;;17.83;6.30;;;14.50;99.90;;;;;;5090727;28;20546;-60
2022/07/04 05:27:42;;;;;;;19.73;5.15;;;14.50;99.90;;;;;;5090612;28;20168;-60
2022/07/04 05:30:09;;;;;;;17.70;5.57;;;14.70;99.90;;;;;;5090687;28;20243;-60
2022/07/04 05:32:39;;;;;;;13.25;4.85;;;14.70;99.90;;;;;;5090477;28;20682;-60
2022/07/04 05:35:06;;;;;;;13.50;4.00;;;14.30;99.90;;;;;;5090369;28;20224;-60
2022/07/04 05:37:32;;;;;;;14.95;4.45;;;14.70;99.90;;;;;;5090428;28;20172;-60
2022/07/04 05:39:57;;;;;;;14.32;4.88;;;14.70;99.90;;;;;;5090473;28;20168;-60
2022/07/04 05:42:23;;;;;;;10.57;4.57;;;14.80;99.90;;;;;;5090532;28;20649;-60
2022/07/04 05:44:49;;;;;;;14.48;4.60;;;14.60;99.90;;;;;;5090441;28;20179;-60
2022/07/04 05:47:15;;;;;;;10.27;3.90;;;14.80;99.90;;;;;;5090428;28;20215;-61
2022/07/04 05:49:40;;;;;;;12.00;4.03;;;14.80;99.90;;;;;;5090732;28;20170;-60
2022/07/04 05:52:06;;;;;;;11.20;3.63;;;14.90;99.90;;;;;;5092592;28;20677;-61
2022/07/04 05:54:32;;;;;;;9.82;3.70;;;14.90;99.90;;;;;;5094068;28;20168;-61
2022/07/04 05:56:58;;;;;;;11.77;3.65;;;15.00;99.90;;;;;;5094123;28;20199;-61
2022/07/04 05:59:24;;;;;;;10.30;3.22;;;15.10;99.90;;;;;;5094069;28;20596;-61
2022/07/04 06:01:50;;;;;;;18.35;4.45;;;15.20;99.90;;;;;;5093823;28;20217;-61
2022/07/04 06:04:16;;;;;;;16.45;3.63;;;15.20;99.90;;;;;;5093857;28;20176;-59
2022/07/04 06:06:41;;;;;;;10.85;3.22;;;15.30;99.90;;;;;;5093771;28;20202;-59
2022/07/04 06:09:07;;;;;;;12.93;3.25;;;15.50;99.90;;;;;;5093960;28;20252;-59
2022/07/04 06:11:34;;;;;;;8.63;2.22;;;15.60;99.90;;;;;;5093720;28;20263;-59
2022/07/04 06:14:00;;;;;;;8.90;2.40;;;15.60;99.90;;;;;;5093832;28;20562;-59
2022/07/04 06:16:26;;;;;;;10.75;2.25;;;15.60;99.90;;;;;;5093545;28;20164;-59
2022/07/04 06:18:51;;;;;;;11.52;2.30;;;15.70;99.90;;;;;;5093623;28;20172;-59
2022/07/04 06:21:17;;;;;;;6.13;1.65;;;15.80;99.90;;;;;;5093541;28;20686;-59
2022/07/04 06:23:43;;;;;;;7.05;1.60;;;15.80;99.90;;;;;;5093502;28;20173;-60
2022/07/04 06:26:09;;;;;;;8.18;1.50;;;16.00;99.90;;;;;;5093425;28;20168;-60
2022/07/04 06:28:35;;;;;;;9.20;1.70;;;15.90;99.90;;;;;;5093383;28;20167;-60
2022/07/04 06:31:00;;;;;;;9.68;1.58;;;15.90;99.90;;;;;;5093394;28;20228;-59
2022/07/04 06:33:26;;;;;;;9.80;1.10;;;16.00;99.90;;;;;;5093186;28;20207;-60
2022/07/04 06:35:55;;;;;;;6.97;1.27;;;16.00;99.90;;;;;;5093262;28;20176;-60
2022/07/04 06:38:26;;;;;;;3.15;0.82;;;16.20;99.90;;;;;;5093221;28;20168;-60
2022/07/04 06:40:57;;;;;;;6.35;0.85;;;16.10;99.90;;;;;;5093178;28;20171;-59
2022/07/04 06:43:23;;;;;;;8.45;1.00;;;16.30;99.90;;;;;;5093101;28;20175;-60
2022/07/04 06:45:49;;;;;;;3.25;1.15;;;16.20;99.90;;;;;;5093217;28;20225;-60
2022/07/04 06:48:15;;;;;;;9.80;1.27;;;16.30;99.90;;;;;;5092989;28;20172;-60
2022/07/04 06:50:41;;;;;;;7.40;0.95;;;16.60;99.90;;;;;;5092962;28;20168;-60
2022/07/04 06:53:09;;;;;;;7.97;1.10;;;16.60;99.90;;;;;;5092868;28;20654;-60
2022/07/04 06:55:37;;;;;;;4.75;0.82;;;16.70;99.90;;;;;;5092925;28;20175;-60
2022/07/04 06:58:03;;;;;;;6.75;0.98;;;16.70;99.90;;;;;;5092800;28;20309;-60
2022/07/04 07:00:32;;;;;;;7.68;1.02;;;17.00;99.90;;;;;;5092741;28;20172;-60
2022/07/04 07:02:59;;;;;;;9.73;1.05;;;17.00;99.90;;;;;;5092261;28;20171;-60
2022/07/04 07:05:26;;;;;;;3.80;0.85;;;17.10;99.90;;;;;;5092619;28;20207;-60
2022/07/04 07:07:52;;;;;;;6.13;1.20;;;17.10;99.90;;;;;;5092753;28;20182;-61
2022/07/04 07:10:18;;;;;;;5.45;0.95;;;17.10;99.90;;;;;;5092697;28;20203;-61
2022/07/04 07:12:44;;;;;;;8.45;0.98;;;17.00;99.90;;;;;;5092471;28;20234;-61
2022/07/04 07:15:10;;;;;;;4.80;0.90;;;17.00;99.90;;;;;;5092370;28;20570;-60
2022/07/04 07:17:36;;;;;;;7.72;1.23;;;17.10;99.90;;;;;;5092256;28;20171;-61
2022/07/04 07:20:02;;;;;;;4.95;1.00;;;17.20;99.90;;;;;;5092429;28;20547;-60
2022/07/04 07:22:28;;;;;;;7.00;1.20;;;17.20;99.90;;;;;;5092351;28;20171;-61
2022/07/04 07:24:54;;;;;;;9.07;1.00;;;17.20;99.90;;;;;;5092386;28;20168;-61
2022/07/04 07:27:20;;;;;;;6.75;0.90;;;17.20;99.90;;;;;;5092480;28;20160;-60
2022/07/04 07:29:46;;;;;;;7.05;0.90;;;17.20;99.90;;;;;;5092150;28;20536;-61
2022/07/04 07:32:11;;;;;;;2.92;0.60;;;17.10;99.90;;;;;;5092056;28;20666;-61
2022/07/04 07:34:37;;;;;;;6.22;0.95;;;17.00;99.90;;;;;;5091998;28;20235;-60
2022/07/04 07:37:03;;;;;;;4.78;0.70;;;17.10;99.90;;;;;;5092205;28;20619;-61
2022/07/04 07:39:29;;;;;;;6.47;0.90;;;17.10;99.90;;;;;;5092131;28;20176;-61
2022/07/04 07:41:55;;;;;;;8.07;0.85;;;;;;;;;;5091969;28;20595;-61
2022/07/04 07:44:21;;;;;;;4.75;0.90;;;17.30;99.90;;;;;;5091862;28;20187;-62
2022/07/04 07:46:46;;;;;;;4.13;0.98;;;17.20;99.90;;;;;;5092128;28;20175;-60
2022/07/04 07:49:12;;;;;;;5.57;0.65;;;17.30;99.90;;;;;;5091776;28;20203;-61
2022/07/04 07:51:38;;;;;;;4.95;0.82;;;;;;;;;;5091760;28;20178;-61
2022/07/04 07:54:04;;;;;;;7.15;0.80;;;17.60;99.90;;;;;;5091805;28;20182;-61
2022/07/04 07:56:30;;;;;;;5.10;0.77;;;17.70;99.90;;;;;;5091679;28;20168;-60
2022/07/04 07:58:56;;;;;;;4.57;0.88;;;17.60;99.90;;;;;;5091714;28;20171;-60
2022/07/04 08:01:21;;;;;;;8.30;0.73;;;17.50;99.90;;;;;;5091673;28;20183;-61
2022/07/04 08:06:33;;;;;;;6.07;0.82;;;17.40;99.90;;;;;;5091789;28;20266;-61
2022/07/04 08:08:59;;;;;;;4.20;0.70;;;17.20;99.90;;;;;;5091405;28;20261;-61
2022/07/04 08:11:25;;;;;;;4.10;0.82;;;17.20;99.90;;;;;;5091367;28;20164;-61
2022/07/04 08:13:52;;;;;;;4.00;0.90;;;16.90;99.90;;;;;;5090691;28;20242;-61
2022/07/04 08:16:18;;;;;;;8.43;1.00;;;17.00;99.90;;;;;;5091327;28;20212;-61
2022/07/04 08:18:44;;;;;;;2.83;0.88;;;17.10;99.90;;;;;;5091230;28;20225;-61
2022/07/04 08:21:10;;;;;;;6.05;0.80;;;17.00;99.90;;;;;;5091350;28;20690;-61
2022/07/04 08:23:36;;;;;;;7.30;0.90;;;16.80;99.90;;;;;;5091295;28;20164;-60
2022/07/04 08:26:03;;;;;;;8.90;0.93;;;16.80;99.90;;;;;;5091264;28;20255;-61
2022/07/04 08:28:30;;;;;;;5.35;0.77;;;16.80;99.90;;;;;;5091131;28;20267;-61
2022/07/04 08:30:56;;;;;;;5.85;1.42;;;16.70;99.90;;;;;;5091305;28;20196;-61
2022/07/04 08:33:24;;;;;;;7.90;1.20;;;16.60;99.90;;;;;;5090969;28;20229;-60
2022/07/04 08:35:50;;;;;;;7.93;1.00;;;16.50;99.90;;;;;;5091107;28;20207;-61
2022/07/04 08:38:17;;;;;;;9.20;1.08;;;16.50;99.90;;;;;;5091185;28;20537;-61
2022/07/04 08:40:42;;;;;;;8.63;1.23;;;16.40;99.90;;;;;;5091218;28;20704;-60
2022/07/04 08:43:13;;;;;;;9.10;1.40;;;17.60;99.90;;;;;;5091035;28;20193;-61
2022/07/04 08:45:40;;;;;;;7.60;1.52;;;16.40;99.90;;;;;;5090928;28;20171;-61
2022/07/04 08:48:09;;;;;;;10.35;1.90;;;16.50;99.90;;;;;;5091006;28;20185;-61
2022/07/04 08:50:44;;;;;;;7.82;2.13;;;16.70;99.90;;;;;;5091100;28;20168;-62
2022/07/04 08:53:20;;;;;;;11.07;2.28;;;16.70;99.90;;;;;;5090910;28;20211;-61
2022/07/04 08:58:33;;;;;;;13.02;2.67;;;17.10;99.90;;;;;;5091176;28;20167;-61
2022/07/04 09:01:04;;;;;;;9.48;2.33;;;17.00;99.90;;;;;;5090742;28;20179;-61
2022/07/04 09:03:31;;;;;;;8.30;1.98;;;17.10;99.90;;;;;;5090797;28;20176;-61
2022/07/04 09:05:58;;;;;;;13.52;1.83;;;17.20;99.90;;;;;;5090804;28;20178;-61
2022/07/04 09:08:24;;;;;;;6.32;1.63;;;17.20;99.90;;;;;;5090786;28;20164;-61
2022/07/04 09:10:52;;;;;;;10.15;1.80;;;17.40;99.90;;;;;;5090723;28;20183;-61
2022/07/04 09:13:19;;;;;;;6.75;1.60;;;17.40;99.90;;;;;;5090608;28;20204;-61
2022/07/04 09:15:47;;;;;;;4.95;1.13;;;17.40;99.90;;;;;;5090736;28;20168;-61
2022/07/04 09:18:39;;;;;;;7.20;1.20;;;17.40;99.90;;;;;;5090666;28;20168;-61
2022/07/04 09:21:07;;;;;;;9.93;1.40;;;17.20;99.90;;;;;;5089484;28;20190;-61
2022/07/04 09:23:36;;;;;;;9.60;1.30;;;17.00;99.90;;;;;;5090587;28;20168;-61
2022/07/04 09:26:21;;;;;;;12.57;1.40;;;17.00;99.90;;;;;;5092791;28;20168;-61
2022/07/04 09:28:57;;;;;;;6.88;1.40;;;16.80;99.90;;;;;;5094580;28;20498;-61
2022/07/04 09:31:29;;;;;;;12.70;1.92;;;16.90;99.90;;;;;;5094570;28;20218;-61
2022/07/04 09:33:57;;;;;;;6.63;1.50;;;17.00;99.90;;;;;;5094469;28;20226;-60
2022/07/04 09:36:33;;;;;;;5.68;1.30;;;17.10;99.90;;;;;;5094411;28;20180;-61
2022/07/04 09:39:14;;;;;;;9.55;2.42;;;17.10;99.90;;;;;;5094500;28;20204;-61
2022/07/04 09:41:56;;;;;;;7.90;1.60;;;17.20;99.90;;;;;;5094294;28;20638;-60
2022/07/04 09:44:43;;;;;;;8.52;1.75;;;17.20;99.90;;;;;;5094213;28;20248;-61
2022/07/04 09:47:36;;;;;;;8.40;1.50;;;17.40;99.90;;;;;;5094359;28;20160;-61
2022/07/04 09:50:11;;;;;;;6.53;1.60;;;17.50;99.90;;;;;;5093300;28;20176;-61
2022/07/04 09:53:02;;;;;;;8.23;1.80;;;17.60;99.90;;;;;;5094031;28;20695;-61
2022/07/04 09:55:39;;;;;;;6.82;1.35;;;18.20;99.90;;;;;;5094247;28;20199;-61
2022/07/04 09:58:07;;;;;;;17.45;1.70;;;18.70;99.90;;;;;;5093903;28;20207;-61
2022/07/04 10:00:36;;;;;;;7.10;1.13;;;19.30;99.90;;;;;;5094103;28;20168;-61
2022/07/04 10:03:18;;;;;;;6.80;1.17;;;19.40;99.90;;;;;;5093735;28;20692;-61
2022/07/04 10:06:01;;;;;;;11.35;1.58;;;19.50;99.90;;;;;;5093933;28;20167;-61
2022/07/04 10:08:27;;;;;;;7.07;1.90;;;19.70;99.90;;;;;;5093916;28;20168;-60
2022/07/04 10:10:57;;;;;;;5.15;1.38;;;19.70;99.90;;;;;;5093664;28;20186;-61
2022/07/04 10:13:23;;;;;;;10.85;1.77;;;19.70;99.90;;;;;;5093677;28;20665;-61
2022/07/04 10:15:49;;;;;;;7.88;1.33;;;19.50;99.90;;;;;;5093796;28;20264;-61
2022/07/04 10:18:21;;;;;;;3.38;1.40;;;19.50;99.90;;;;;;5093668;28;20216;-61
2022/07/04 10:20:48;;;;;;;7.35;1.70;;;19.10;99.90;;;;;;5093541;28;20226;-61
2022/07/04 10:23:15;;;;;;;7.03;1.25;;;19.00;99.90;;;;;;5093572;28;20160;-61
2022/07/04 10:25:44;;;;;;;4.60;1.77;;;19.00;99.90;;;;;;5093578;28;20171;-61
2022/07/04 10:28:10;;;;;;;8.73;1.75;;;19.00;99.90;;;;;;5093631;28;20168;-61
2022/07/04 10:30:37;;;;;;;4.22;1.40;;;19.30;99.90;;;;;;5093467;28;20172;-61
2022/07/04 10:33:09;;;;;;;4.90;1.17;;;19.50;99.90;;;;;;5093392;28;20214;-61
2022/07/04 10:35:54;;;;;;;3.47;0.88;;;19.30;99.90;;;;;;5091784;28;20223;-61
2022/07/04 10:38:25;;;;;;;2.67;1.10;;;19.60;99.90;;;;;;5092614;28;20566;-61
2022/07/04 10:40:53;;;;;;;6.97;1.30;;;19.50;99.90;;;;;;5093183;28;20164;-61
2022/07/04 10:43:46;;;;;;;3.83;0.90;;;20.10;99.90;;;;;;5093275;28;20168;-61
2022/07/04 10:46:19;;;;;;;1.70;0.73;;;20.50;99.90;;;;;;5092974;28;20324;-61
2022/07/04 10:49:17;;;;;;;2.88;0.75;;;20.20;99.90;;;;;;5093171;28;20176;-61
2022/07/04 10:51:50;;;;;;;6.25;1.00;;;20.30;99.90;;;;;;5092939;28;20164;-61
2022/07/04 10:54:32;;;;;;;3.92;1.20;;;20.50;99.90;;;;;;5092889;28;20191;-61
2022/07/04 10:57:14;;;;;;;6.30;1.08;;;20.20;99.90;;;;;;5091867;28;20196;-61
2022/07/04 11:00:01;;;;;;;4.65;0.90;;;19.90;99.90;;;;;;5092903;28;20168;-61
2022/07/04 11:02:29;;;;;;;2.25;0.98;;;20.10;99.90;;;;;;5093125;28;20176;-61
2022/07/04 11:05:09;;;;;;;3.30;1.08;;;20.70;99.90;;;;;;5092656;28;20211;-61
2022/07/04 11:07:37;;;;;;;1.85;1.10;;;20.90;99.90;;;;;;5092717;28;20633;-61
2022/07/04 11:10:13;;;;;;;3.67;1.05;;;21.50;99.90;;;;;;5092374;28;20179;-60
2022/07/04 11:12:54;;;;;;;2.13;0.90;;;21.20;99.90;;;;;;5092645;28;20207;-61
2022/07/04 11:15:28;;;;;;;1.70;0.85;;;21.60;99.90;;;;;;5092816;28;20174;-61
2022/07/04 11:17:56;;;;;;;4.85;0.70;;;21.70;99.90;;;;;;5092713;28;20179;-60
2022/07/04 11:20:23;;;;;;;1.95;0.88;;;21.20;99.90;;;;;;5092434;28;20171;-61
2022/07/04 11:22:49;;;;;;;3.95;1.17;;;21.00;99.90;;;;;;5092410;28;20179;-61
2022/07/04 11:25:15;;;;;;;1.75;0.80;;;21.00;99.90;;;;;;5092461;28;20160;-61
2022/07/04 11:27:41;;;;;;;4.10;0.63;;;21.50;99.90;;;;;;5092293;28;20180;-61
2022/07/04 11:30:09;;;;;;;3.50;1.00;;;22.10;99.90;;;;;;5092474;28;20179;-61
2022/07/04 11:32:36;;;;;;;2.90;0.73;;;22.00;99.90;;;;;;5092228;28;20203;-61
2022/07/04 11:35:04;;;;;;;3.13;1.02;;;21.20;99.90;;;;;;5091977;28;20227;-60
2022/07/04 11:37:29;;;;;;;2.22;1.00;;;21.10;99.90;;;;;;5092188;28;20309;-61
2022/07/04 11:45:50;;;;;;;3.13;1.02;;;22.50;99.90;;;;;;5091775;28;20175;-61
2022/07/04 11:48:26;;;;;;;2.17;0.90;;;22.50;99.90;;;;;;5091245;28;20662;-61
2022/07/04 11:50:52;;;;;;;4.75;1.17;;;21.90;99.90;;;;;;5091587;28;20175;-61
2022/07/04 11:53:19;;;;;;;2.78;0.88;;;22.00;99.90;;;;;;5091755;28;20200;-61
2022/07/04 11:55:56;;;;;;;1.35;0.93;;;21.60;99.90;;;;;;5091639;28;20669;-60
2022/07/04 11:58:24;;;;;;;3.50;0.90;;;21.50;99.90;;;;;;5091863;28;20218;-61
2022/07/04 12:00:50;;;;;;;5.75;1.05;;;22.00;99.90;;;;;;5091528;28;20164;-61
2022/07/04 12:03:16;;;;;;;3.17;1.10;;;22.60;99.90;;;;;;5091728;28;20164;-60
2022/07/04 12:05:43;;;;;;;3.67;1.10;;;22.00;99.90;;;;;;5091965;28;20543;-61
2022/07/04 12:08:09;;;;;;;2.45;1.00;;;22.00;99.90;;;;;;5091557;28;20175;-61
2022/07/04 12:10:36;;;;;;;2.40;0.77;;;22.00;99.90;;;;;;5091450;28;20164;-61
2022/07/04 12:13:08;;;;;;;8.35;1.00;;;22.10;99.90;;;;;;5091447;28;20203;-62
2022/07/04 12:15:43;;;;;;;3.63;0.90;;;22.10;99.90;;;;;;5091456;28;20626;-60
2022/07/04 12:18:22;;;;;;;7.93;1.00;;;21.80;99.90;;;;;;5091454;28;20171;-61
2022/07/04 12:20:49;;;;;;;2.10;0.98;;;21.60;99.90;;;;;;5091417;28;20201;-60
2022/07/04 12:23:16;;;;;;;5.15;1.10;;;21.30;99.90;;;;;;5091315;28;20215;-61
2022/07/04 12:25:45;;;;;;;3.80;1.15;;;21.30;99.90;;;;;;5091251;28;20665;-61
2022/07/04 12:28:16;;;;;;;3.95;1.08;;;21.20;99.90;;;;;;5091540;28;20255;-60
2022/07/04 12:30:56;;;;;;;2.65;0.90;;;21.40;99.90;;;;;;5091301;28;20167;-61
2022/07/04 12:33:24;;;;;;;5.07;0.98;;;21.70;99.90;;;;;;5091068;28;20242;-61
2022/07/04 12:36:00;;;;;;;3.25;1.00;;;21.70;99.90;;;;;;5091037;28;20222;-61
2022/07/04 12:38:33;;;;;;;4.07;1.10;;;21.30;99.90;;;;;;5090905;28;20164;-61
2022/07/04 12:41:00;;;;;;;2.88;1.15;;;21.30;99.90;;;;;;5091157;28;20214;-61
2022/07/04 12:43:42;;;;;;;1.48;0.85;;;20.80;99.90;;;;;;5091145;28;20191;-60
2022/07/04 12:46:28;;;;;;;2.95;0.90;;;20.30;99.90;;;;;;5091208;28;20198;-60
2022/07/04 12:48:55;;;;;;;1.85;0.80;;;20.20;99.90;;;;;;5091106;28;20164;-60
2022/07/04 12:51:26;;;;;;;4.22;0.90;;;20.00;99.90;;;;;;5091012;28;20249;-60
2022/07/04 12:53:54;;;;;;;2.85;0.80;;;20.00;99.90;;;;;;5090878;28;20273;-60
2022/07/04 12:56:29;;;;;;;4.00;1.20;;;20.10;99.90;;;;;;5090852;28;20175;-61
2022/07/04 12:58:55;;;;;;;2.58;0.85;;;20.20;99.90;;;;;;5090946;28;20192;-60
2022/07/04 13:01:21;;;;;;;2.63;1.08;;;20.30;99.90;;;;;;5093767;28;20164;-60
2022/07/04 13:03:47;;;;;;;1.58;0.80;;;20.70;99.90;;;;;;5095387;28;20190;-62
2022/07/04 13:06:13;;;;;;;2.25;0.93;;;21.10;99.90;;;;;;5095135;28;20653;-61
2022/07/04 13:08:39;;;;;;;1.90;0.80;;;21.00;99.90;;;;;;5095162;28;20175;-61